sensor_id;sensor_type;location;lat;lon;timestamp;P1;durP1;ratioP1;P2;durP2;ratioP2
25237;SDS011;13185;50.872;5.306;2024-03-23T00:53:58;7.47;;;1.80;;
25237;SDS011;13185;50.872;5.306;2024-03-23T00:56:23;8.43;;;1.63;;
25237;SDS011;13185;50.872;5.306;2024-03-23T00:58:49;6.80;;;1.70;;
25237;SDS011;13185;50.872;5.306;2024-03-23T01:01:15;10.00;;;1.63;;
25237;SDS011;13185;50.872;5.306;2024-03-23T01:03:40;10.57;;;2.28;;
25237;SDS011;13185;50.872;5.306;2024-03-23T01:06:06;4.70;;;1.23;;
25237;SDS011;13185;50.872;5.306;2024-03-23T01:08:32;9.48;;;1.45;;
25237;SDS011;13185;50.872;5.306;2024-03-23T01:10:58;6.47;;;1.90;;
25237;SDS011;13185;50.872;5.306;2024-03-23T01:13:25;6.65;;;1.35;;
25237;SDS011;13185;50.872;5.306;2024-03-23T01:15:51;8.55;;;2.17;;
25237;SDS011;13185;50.872;5.306;2024-03-23T01:18:17;6.78;;;1.63;;
25237;SDS011;13185;50.872;5.306;2024-03-23T01:20:47;5.82;;;1.60;;
25237;SDS011;13185;50.872;5.306;2024-03-23T01:23:13;4.47;;;1.27;;
25237;SDS011;13185;50.872;5.306;2024-03-23T01:25:39;9.13;;;1.70;;
25237;SDS011;13185;50.872;5.306;2024-03-23T01:28:05;4.80;;;1.23;;
25237;SDS011;13185;50.872;5.306;2024-03-23T01:30:31;6.32;;;1.50;;
25237;SDS011;13185;50.872;5.306;2024-03-23T01:33:00;5.63;;;1.60;;
25237;SDS011;13185;50.872;5.306;2024-03-23T01:35:26;10.40;;;1.67;;
25237;SDS011;13185;50.872;5.306;2024-03-23T01:37:52;5.53;;;1.30;;
25237;SDS011;13185;50.872;5.306;2024-03-23T01:40:17;8.88;;;2.03;;
25237;SDS011;13185;50.872;5.306;2024-03-23T01:42:54;5.68;;;1.45;;
25237;SDS011;13185;50.872;5.306;2024-03-23T01:45:21;6.63;;;2.25;;
25237;SDS011;13185;50.872;5.306;2024-03-23T01:47:46;9.63;;;1.75;;
25237;SDS011;13185;50.872;5.306;2024-03-23T01:50:12;13.90;;;2.25;;
25237;SDS011;13185;50.872;5.306;2024-03-23T01:52:38;6.78;;;1.70;;
25237;SDS011;13185;50.872;5.306;2024-03-23T01:55:04;9.63;;;1.40;;
25237;SDS011;13185;50.872;5.306;2024-03-23T01:57:30;9.02;;;1.75;;
25237;SDS011;13185;50.872;5.306;2024-03-23T01:59:55;9.90;;;2.17;;
25237;SDS011;13185;50.872;5.306;2024-03-23T02:02:26;10.85;;;2.60;;
25237;SDS011;13185;50.872;5.306;2024-03-23T02:04:51;8.10;;;1.45;;
25237;SDS011;13185;50.872;5.306;2024-03-23T02:07:17;7.28;;;2.08;;
25237;SDS011;13185;50.872;5.306;2024-03-23T02:09:42;9.00;;;1.50;;
25237;SDS011;13185;50.872;5.306;2024-03-23T02:12:08;8.38;;;1.88;;
25237;SDS011;13185;50.872;5.306;2024-03-23T02:14:34;6.30;;;1.42;;
25237;SDS011;13185;50.872;5.306;2024-03-23T02:17:00;8.00;;;1.65;;
25237;SDS011;13185;50.872;5.306;2024-03-23T02:19:25;7.57;;;2.03;;
25237;SDS011;13185;50.872;5.306;2024-03-23T02:21:51;7.95;;;2.63;;
25237;SDS011;13185;50.872;5.306;2024-03-23T02:24:16;8.02;;;1.88;;
25237;SDS011;13185;50.872;5.306;2024-03-23T02:26:42;9.85;;;1.90;;
25237;SDS011;13185;50.872;5.306;2024-03-23T02:29:08;12.82;;;2.17;;
25237;SDS011;13185;50.872;5.306;2024-03-23T02:31:34;8.65;;;2.03;;
25237;SDS011;13185;50.872;5.306;2024-03-23T02:34:01;7.55;;;1.40;;
25237;SDS011;13185;50.872;5.306;2024-03-23T02:36:26;8.90;;;2.22;;
25237;SDS011;13185;50.872;5.306;2024-03-23T02:38:52;10.73;;;2.15;;
25237;SDS011;13185;50.872;5.306;2024-03-23T02:41:17;6.00;;;1.98;;
25237;SDS011;13185;50.872;5.306;2024-03-23T02:43:50;6.75;;;1.80;;
25237;SDS011;13185;50.872;5.306;2024-03-23T02:46:16;7.90;;;1.85;;
25237;SDS011;13185;50.872;5.306;2024-03-23T02:48:42;9.25;;;2.25;;
25237;SDS011;13185;50.872;5.306;2024-03-23T02:51:08;7.97;;;2.25;;
25237;SDS011;13185;50.872;5.306;2024-03-23T02:53:33;6.97;;;2.28;;
25237;SDS011;13185;50.872;5.306;2024-03-23T02:55:59;6.65;;;2.28;;
25237;SDS011;13185;50.872;5.306;2024-03-23T02:58:24;6.97;;;2.10;;
25237;SDS011;13185;50.872;5.306;2024-03-23T03:00:50;10.20;;;2.08;;
25237;SDS011;13185;50.872;5.306;2024-03-23T03:03:15;10.77;;;1.95;;
25237;SDS011;13185;50.872;5.306;2024-03-23T03:05:41;6.75;;;2.13;;
25237;SDS011;13185;50.872;5.306;2024-03-23T03:08:06;8.45;;;2.00;;
25237;SDS011;13185;50.872;5.306;2024-03-23T03:10:32;10.43;;;2.17;;
25237;SDS011;13185;50.872;5.306;2024-03-23T03:13:00;8.60;;;1.92;;
25237;SDS011;13185;50.872;5.306;2024-03-23T03:15:26;8.15;;;2.30;;
25237;SDS011;13185;50.872;5.306;2024-03-23T03:17:51;9.35;;;2.50;;
25237;SDS011;13185;50.872;5.306;2024-03-23T03:20:17;11.57;;;2.20;;
25237;SDS011;13185;50.872;5.306;2024-03-23T03:22:43;9.18;;;1.92;;
25237;SDS011;13185;50.872;5.306;2024-03-23T03:25:09;9.30;;;1.88;;
25237;SDS011;13185;50.872;5.306;2024-03-23T03:27:34;9.88;;;2.20;;
25237;SDS011;13185;50.872;5.306;2024-03-23T03:30:00;10.93;;;2.50;;
25237;SDS011;13185;50.872;5.306;2024-03-23T03:32:30;5.88;;;1.77;;
25237;SDS011;13185;50.872;5.306;2024-03-23T03:34:55;9.18;;;2.08;;
25237;SDS011;13185;50.872;5.306;2024-03-23T03:37:21;9.93;;;1.83;;
25237;SDS011;13185;50.872;5.306;2024-03-23T03:39:46;7.43;;;1.92;;
25237;SDS011;13185;50.872;5.306;2024-03-23T03:42:12;8.48;;;1.88;;
25237;SDS011;13185;50.872;5.306;2024-03-23T03:44:38;9.65;;;1.85;;
25237;SDS011;13185;50.872;5.306;2024-03-23T03:47:05;6.15;;;1.63;;
25237;SDS011;13185;50.872;5.306;2024-03-23T03:49:31;6.57;;;1.67;;
25237;SDS011;13185;50.872;5.306;2024-03-23T03:51:56;10.38;;;2.22;;
25237;SDS011;13185;50.872;5.306;2024-03-23T03:54:22;8.77;;;2.08;;
25237;SDS011;13185;50.872;5.306;2024-03-23T03:56:47;8.85;;;1.92;;
25237;SDS011;13185;50.872;5.306;2024-03-23T03:59:13;10.50;;;1.98;;
25237;SDS011;13185;50.872;5.306;2024-03-23T04:01:39;9.40;;;2.30;;
25237;SDS011;13185;50.872;5.306;2024-03-23T04:04:05;7.40;;;1.80;;
25237;SDS011;13185;50.872;5.306;2024-03-23T04:06:30;7.38;;;1.80;;
25237;SDS011;13185;50.872;5.306;2024-03-23T04:08:56;8.57;;;1.77;;
25237;SDS011;13185;50.872;5.306;2024-03-23T04:11:21;8.38;;;1.77;;
25237;SDS011;13185;50.872;5.306;2024-03-23T04:13:47;8.40;;;1.60;;
25237;SDS011;13185;50.872;5.306;2024-03-23T04:16:13;7.45;;;2.38;;
25237;SDS011;13185;50.872;5.306;2024-03-23T04:18:38;8.75;;;2.05;;
25237;SDS011;13185;50.872;5.306;2024-03-23T04:21:03;10.43;;;2.22;;
25237;SDS011;13185;50.872;5.306;2024-03-23T04:23:29;10.15;;;2.00;;
25237;SDS011;13185;50.872;5.306;2024-03-23T04:25:55;9.52;;;1.95;;
25237;SDS011;13185;50.872;5.306;2024-03-23T04:28:20;10.18;;;2.05;;
25237;SDS011;13185;50.872;5.306;2024-03-23T04:30:46;9.27;;;2.92;;
25237;SDS011;13185;50.872;5.306;2024-03-23T04:33:11;9.27;;;2.15;;
25237;SDS011;13185;50.872;5.306;2024-03-23T04:35:37;7.03;;;2.33;;
25237;SDS011;13185;50.872;5.306;2024-03-23T04:38:02;8.75;;;2.78;;
25237;SDS011;13185;50.872;5.306;2024-03-23T04:40:28;8.45;;;2.67;;
25237;SDS011;13185;50.872;5.306;2024-03-23T04:42:54;13.57;;;2.85;;
25237;SDS011;13185;50.872;5.306;2024-03-23T04:45:19;9.32;;;2.60;;
25237;SDS011;13185;50.872;5.306;2024-03-23T04:47:45;14.48;;;2.67;;
25237;SDS011;13185;50.872;5.306;2024-03-23T04:50:10;8.68;;;2.78;;
25237;SDS011;13185;50.872;5.306;2024-03-23T04:52:36;13.60;;;3.53;;
25237;SDS011;13185;50.872;5.306;2024-03-23T04:55:02;11.32;;;3.13;;
25237;SDS011;13185;50.872;5.306;2024-03-23T04:57:29;7.57;;;2.53;;
25237;SDS011;13185;50.872;5.306;2024-03-23T04:59:54;9.18;;;3.25;;
25237;SDS011;13185;50.872;5.306;2024-03-23T05:02:20;13.15;;;3.45;;
25237;SDS011;13185;50.872;5.306;2024-03-23T05:04:47;12.60;;;3.33;;
25237;SDS011;13185;50.872;5.306;2024-03-23T05:07:13;10.02;;;3.83;;
25237;SDS011;13185;50.872;5.306;2024-03-23T05:09:38;8.38;;;3.40;;
25237;SDS011;13185;50.872;5.306;2024-03-23T05:12:04;10.90;;;4.10;;
25237;SDS011;13185;50.872;5.306;2024-03-23T05:14:30;17.20;;;4.57;;
25237;SDS011;13185;50.872;5.306;2024-03-23T05:16:55;8.88;;;3.80;;
25237;SDS011;13185;50.872;5.306;2024-03-23T05:19:21;14.82;;;4.50;;
25237;SDS011;13185;50.872;5.306;2024-03-23T05:21:47;9.50;;;3.95;;
25237;SDS011;13185;50.872;5.306;2024-03-23T05:24:13;15.35;;;4.60;;
25237;SDS011;13185;50.872;5.306;2024-03-23T05:26:38;10.70;;;4.30;;
25237;SDS011;13185;50.872;5.306;2024-03-23T05:29:04;10.98;;;4.35;;
25237;SDS011;13185;50.872;5.306;2024-03-23T05:31:30;15.80;;;5.28;;
25237;SDS011;13185;50.872;5.306;2024-03-23T05:33:56;10.98;;;4.75;;
25237;SDS011;13185;50.872;5.306;2024-03-23T05:36:22;15.52;;;5.15;;
25237;SDS011;13185;50.872;5.306;2024-03-23T05:38:49;8.60;;;4.70;;
25237;SDS011;13185;50.872;5.306;2024-03-23T05:41:15;12.32;;;4.63;;
25237;SDS011;13185;50.872;5.306;2024-03-23T05:43:40;11.52;;;5.00;;
25237;SDS011;13185;50.872;5.306;2024-03-23T05:46:06;13.45;;;4.70;;
25237;SDS011;13185;50.872;5.306;2024-03-23T05:48:32;12.63;;;4.70;;
25237;SDS011;13185;50.872;5.306;2024-03-23T05:50:58;14.75;;;5.05;;
25237;SDS011;13185;50.872;5.306;2024-03-23T05:53:24;12.98;;;4.85;;
25237;SDS011;13185;50.872;5.306;2024-03-23T05:55:50;13.98;;;5.60;;
25237;SDS011;13185;50.872;5.306;2024-03-23T05:58:18;14.80;;;4.53;;
25237;SDS011;13185;50.872;5.306;2024-03-23T06:00:45;12.45;;;4.95;;
25237;SDS011;13185;50.872;5.306;2024-03-23T06:03:11;12.20;;;4.65;;
25237;SDS011;13185;50.872;5.306;2024-03-23T06:05:37;14.35;;;4.45;;
25237;SDS011;13185;50.872;5.306;2024-03-23T06:08:03;14.20;;;5.18;;
25237;SDS011;13185;50.872;5.306;2024-03-23T06:10:28;16.05;;;5.05;;
25237;SDS011;13185;50.872;5.306;2024-03-23T06:12:54;18.90;;;5.60;;
25237;SDS011;13185;50.872;5.306;2024-03-23T06:15:20;14.20;;;5.60;;
25237;SDS011;13185;50.872;5.306;2024-03-23T06:17:47;12.00;;;5.45;;
25237;SDS011;13185;50.872;5.306;2024-03-23T06:20:13;14.98;;;4.78;;
25237;SDS011;13185;50.872;5.306;2024-03-23T06:22:39;16.50;;;4.85;;
25237;SDS011;13185;50.872;5.306;2024-03-23T06:25:05;15.38;;;5.07;;
25237;SDS011;13185;50.872;5.306;2024-03-23T06:27:31;11.65;;;5.28;;
25237;SDS011;13185;50.872;5.306;2024-03-23T06:29:58;8.65;;;4.75;;
25237;SDS011;13185;50.872;5.306;2024-03-23T06:32:23;10.48;;;5.05;;
25237;SDS011;13185;50.872;5.306;2024-03-23T06:34:49;15.75;;;5.85;;
25237;SDS011;13185;50.872;5.306;2024-03-23T06:37:14;15.23;;;5.43;;
25237;SDS011;13185;50.872;5.306;2024-03-23T06:39:40;10.68;;;4.75;;
25237;SDS011;13185;50.872;5.306;2024-03-23T06:42:05;14.85;;;5.22;;
25237;SDS011;13185;50.872;5.306;2024-03-23T06:44:31;14.30;;;5.65;;
25237;SDS011;13185;50.872;5.306;2024-03-23T06:46:57;8.13;;;4.25;;
25237;SDS011;13185;50.872;5.306;2024-03-23T06:49:22;9.93;;;5.13;;
25237;SDS011;13185;50.872;5.306;2024-03-23T06:51:49;9.55;;;4.80;;
25237;SDS011;13185;50.872;5.306;2024-03-23T06:54:14;12.18;;;5.25;;
25237;SDS011;13185;50.872;5.306;2024-03-23T06:56:40;10.60;;;4.57;;
25237;SDS011;13185;50.872;5.306;2024-03-23T06:59:06;14.05;;;5.50;;
25237;SDS011;13185;50.872;5.306;2024-03-23T07:01:31;11.73;;;4.50;;
25237;SDS011;13185;50.872;5.306;2024-03-23T07:03:57;10.02;;;5.22;;
25237;SDS011;13185;50.872;5.306;2024-03-23T07:06:23;12.10;;;4.53;;
25237;SDS011;13185;50.872;5.306;2024-03-23T07:08:48;9.27;;;4.30;;
25237;SDS011;13185;50.872;5.306;2024-03-23T07:11:20;10.10;;;4.90;;
25237;SDS011;13185;50.872;5.306;2024-03-23T07:13:49;16.08;;;4.63;;
25237;SDS011;13185;50.872;5.306;2024-03-23T07:16:15;7.70;;;3.70;;
25237;SDS011;13185;50.872;5.306;2024-03-23T07:18:41;11.95;;;4.25;;
25237;SDS011;13185;50.872;5.306;2024-03-23T07:21:07;13.73;;;4.07;;
25237;SDS011;13185;50.872;5.306;2024-03-23T07:23:32;10.15;;;4.20;;
25237;SDS011;13185;50.872;5.306;2024-03-23T07:25:58;14.13;;;3.78;;
25237;SDS011;13185;50.872;5.306;2024-03-23T07:28:25;20.15;;;3.40;;
25237;SDS011;13185;50.872;5.306;2024-03-23T07:33:29;14.07;;;3.55;;
25237;SDS011;13185;50.872;5.306;2024-03-23T07:35:54;11.43;;;2.92;;
25237;SDS011;13185;50.872;5.306;2024-03-23T07:38:20;6.80;;;2.65;;
25237;SDS011;13185;50.872;5.306;2024-03-23T07:40:45;11.23;;;3.22;;
25237;SDS011;13185;50.872;5.306;2024-03-23T07:43:11;9.98;;;2.70;;
25237;SDS011;13185;50.872;5.306;2024-03-23T07:45:37;13.50;;;2.80;;
25237;SDS011;13185;50.872;5.306;2024-03-23T07:48:03;5.53;;;2.50;;
25237;SDS011;13185;50.872;5.306;2024-03-23T07:50:29;13.07;;;3.20;;
25237;SDS011;13185;50.872;5.306;2024-03-23T07:52:55;11.55;;;2.72;;
25237;SDS011;13185;50.872;5.306;2024-03-23T07:55:20;10.60;;;2.63;;
25237;SDS011;13185;50.872;5.306;2024-03-23T07:57:46;11.18;;;2.45;;
25237;SDS011;13185;50.872;5.306;2024-03-23T08:00:12;8.27;;;2.65;;
25237;SDS011;13185;50.872;5.306;2024-03-23T08:02:38;9.77;;;2.13;;
25237;SDS011;13185;50.872;5.306;2024-03-23T08:05:04;13.45;;;2.15;;
25237;SDS011;13185;50.872;5.306;2024-03-23T08:07:29;11.50;;;2.35;;
25237;SDS011;13185;50.872;5.306;2024-03-23T08:09:55;10.07;;;2.53;;
25237;SDS011;13185;50.872;5.306;2024-03-23T08:12:20;14.52;;;2.45;;
25237;SDS011;13185;50.872;5.306;2024-03-23T08:14:46;10.73;;;2.40;;
25237;SDS011;13185;50.872;5.306;2024-03-23T08:17:11;9.07;;;2.20;;
25237;SDS011;13185;50.872;5.306;2024-03-23T08:19:37;8.13;;;2.05;;
25237;SDS011;13185;50.872;5.306;2024-03-23T08:22:02;16.30;;;2.70;;
25237;SDS011;13185;50.872;5.306;2024-03-23T08:24:28;6.68;;;2.10;;
25237;SDS011;13185;50.872;5.306;2024-03-23T08:26:54;9.65;;;2.00;;
25237;SDS011;13185;50.872;5.306;2024-03-23T08:29:19;9.85;;;2.15;;
25237;SDS011;13185;50.872;5.306;2024-03-23T08:31:45;8.90;;;2.00;;
25237;SDS011;13185;50.872;5.306;2024-03-23T08:34:10;7.78;;;1.70;;
25237;SDS011;13185;50.872;5.306;2024-03-23T08:36:36;12.50;;;2.00;;
25237;SDS011;13185;50.872;5.306;2024-03-23T08:39:02;4.68;;;1.27;;
25237;SDS011;13185;50.872;5.306;2024-03-23T08:41:27;4.10;;;0.93;;
25237;SDS011;13185;50.872;5.306;2024-03-23T08:43:53;6.43;;;1.58;;
25237;SDS011;13185;50.872;5.306;2024-03-23T08:46:18;6.40;;;1.17;;
25237;SDS011;13185;50.872;5.306;2024-03-23T08:48:44;3.08;;;0.98;;
25237;SDS011;13185;50.872;5.306;2024-03-23T08:51:14;4.25;;;1.00;;
25237;SDS011;13185;50.872;5.306;2024-03-23T08:53:41;3.88;;;1.10;;
25237;SDS011;13185;50.872;5.306;2024-03-23T08:56:08;4.75;;;1.00;;
25237;SDS011;13185;50.872;5.306;2024-03-23T08:58:35;3.70;;;1.42;;
25237;SDS011;13185;50.872;5.306;2024-03-23T09:01:07;7.72;;;1.30;;
25237;SDS011;13185;50.872;5.306;2024-03-23T09:03:34;8.35;;;1.40;;
25237;SDS011;13185;50.872;5.306;2024-03-23T09:06:00;7.28;;;1.73;;
25237;SDS011;13185;50.872;5.306;2024-03-23T09:08:27;7.50;;;1.45;;
25237;SDS011;13185;50.872;5.306;2024-03-23T09:10:53;8.77;;;1.80;;
25237;SDS011;13185;50.872;5.306;2024-03-23T09:13:18;6.82;;;1.23;;
25237;SDS011;13185;50.872;5.306;2024-03-23T09:15:51;7.57;;;1.70;;
25237;SDS011;13185;50.872;5.306;2024-03-23T09:18:21;6.70;;;1.98;;
25237;SDS011;13185;50.872;5.306;2024-03-23T09:20:47;9.63;;;1.70;;
25237;SDS011;13185;50.872;5.306;2024-03-23T09:23:12;10.02;;;2.70;;
25237;SDS011;13185;50.872;5.306;2024-03-23T09:25:38;10.23;;;1.70;;
25237;SDS011;13185;50.872;5.306;2024-03-23T09:28:07;8.25;;;2.13;;
25237;SDS011;13185;50.872;5.306;2024-03-23T09:30:34;10.55;;;2.38;;
25237;SDS011;13185;50.872;5.306;2024-03-23T09:33:00;9.38;;;1.83;;
25237;SDS011;13185;50.872;5.306;2024-03-23T09:35:26;8.23;;;1.50;;
25237;SDS011;13185;50.872;5.306;2024-03-23T09:37:52;5.70;;;1.55;;
25237;SDS011;13185;50.872;5.306;2024-03-23T09:40:17;6.88;;;1.20;;
25237;SDS011;13185;50.872;5.306;2024-03-23T09:42:43;9.82;;;1.75;;
25237;SDS011;13185;50.872;5.306;2024-03-23T09:45:20;8.82;;;1.70;;
25237;SDS011;13185;50.872;5.306;2024-03-23T09:47:47;4.88;;;1.08;;
25237;SDS011;13185;50.872;5.306;2024-03-23T09:50:13;7.93;;;1.30;;
25237;SDS011;13185;50.872;5.306;2024-03-23T09:52:39;4.32;;;1.00;;
25237;SDS011;13185;50.872;5.306;2024-03-23T09:55:07;6.72;;;1.17;;
25237;SDS011;13185;50.872;5.306;2024-03-23T09:57:33;7.63;;;1.58;;
25237;SDS011;13185;50.872;5.306;2024-03-23T09:59:59;6.70;;;1.20;;
25237;SDS011;13185;50.872;5.306;2024-03-23T10:02:24;8.88;;;1.30;;
25237;SDS011;13185;50.872;5.306;2024-03-23T10:04:51;10.77;;;1.52;;
25237;SDS011;13185;50.872;5.306;2024-03-23T10:07:19;9.80;;;1.83;;
25237;SDS011;13185;50.872;5.306;2024-03-23T10:09:46;6.88;;;1.15;;
25237;SDS011;13185;50.872;5.306;2024-03-23T10:12:14;10.40;;;1.55;;
25237;SDS011;13185;50.872;5.306;2024-03-23T10:14:41;6.15;;;1.40;;
25237;SDS011;13185;50.872;5.306;2024-03-23T10:17:11;7.95;;;1.25;;
25237;SDS011;13185;50.872;5.306;2024-03-23T10:19:38;8.60;;;1.58;;
25237;SDS011;13185;50.872;5.306;2024-03-23T10:22:04;5.32;;;1.40;;
25237;SDS011;13185;50.872;5.306;2024-03-23T10:24:29;7.72;;;1.58;;
25237;SDS011;13185;50.872;5.306;2024-03-23T10:26:55;6.90;;;1.40;;
25237;SDS011;13185;50.872;5.306;2024-03-23T10:29:22;4.65;;;1.13;;
25237;SDS011;13185;50.872;5.306;2024-03-23T10:31:47;4.80;;;1.80;;
25237;SDS011;13185;50.872;5.306;2024-03-23T10:34:12;6.80;;;1.10;;
25237;SDS011;13185;50.872;5.306;2024-03-23T10:36:38;5.15;;;0.93;;
25237;SDS011;13185;50.872;5.306;2024-03-23T10:39:06;6.75;;;1.13;;
25237;SDS011;13185;50.872;5.306;2024-03-23T10:41:32;6.53;;;1.42;;
25237;SDS011;13185;50.872;5.306;2024-03-23T10:43:58;3.75;;;1.02;;
25237;SDS011;13185;50.872;5.306;2024-03-23T10:46:25;5.40;;;1.17;;
25237;SDS011;13185;50.872;5.306;2024-03-23T10:48:50;5.13;;;1.13;;
25237;SDS011;13185;50.872;5.306;2024-03-23T10:51:16;3.75;;;0.90;;
25237;SDS011;13185;50.872;5.306;2024-03-23T10:53:42;8.48;;;1.35;;
25237;SDS011;13185;50.872;5.306;2024-03-23T10:56:07;4.90;;;1.23;;
25237;SDS011;13185;50.872;5.306;2024-03-23T11:01:11;5.55;;;0.90;;
25237;SDS011;13185;50.872;5.306;2024-03-23T11:03:37;5.22;;;1.00;;
25237;SDS011;13185;50.872;5.306;2024-03-23T11:06:04;6.00;;;1.30;;
25237;SDS011;13185;50.872;5.306;2024-03-23T11:08:37;7.90;;;1.05;;
25237;SDS011;13185;50.872;5.306;2024-03-23T11:11:22;5.65;;;0.77;;
25237;SDS011;13185;50.872;5.306;2024-03-23T11:13:50;6.97;;;1.10;;
25237;SDS011;13185;50.872;5.306;2024-03-23T11:16:21;4.85;;;0.93;;
25237;SDS011;13185;50.872;5.306;2024-03-23T11:18:48;4.63;;;0.95;;
25237;SDS011;13185;50.872;5.306;2024-03-23T11:24:18;3.80;;;0.77;;
25237;SDS011;13185;50.872;5.306;2024-03-23T11:26:45;4.22;;;1.38;;
25237;SDS011;13185;50.872;5.306;2024-03-23T11:29:10;5.80;;;1.05;;
25237;SDS011;13185;50.872;5.306;2024-03-23T11:31:37;2.35;;;0.70;;
25237;SDS011;13185;50.872;5.306;2024-03-23T11:34:06;5.43;;;1.15;;
25237;SDS011;13185;50.872;5.306;2024-03-23T11:36:32;6.75;;;0.90;;
25237;SDS011;13185;50.872;5.306;2024-03-23T11:38:58;4.57;;;1.10;;
25237;SDS011;13185;50.872;5.306;2024-03-23T11:41:23;5.38;;;1.20;;
25237;SDS011;13185;50.872;5.306;2024-03-23T11:43:50;4.80;;;0.90;;
25237;SDS011;13185;50.872;5.306;2024-03-23T11:46:22;4.85;;;1.23;;
25237;SDS011;13185;50.872;5.306;2024-03-23T11:48:51;4.67;;;0.97;;
25237;SDS011;13185;50.872;5.306;2024-03-23T11:51:16;4.03;;;0.70;;
25237;SDS011;13185;50.872;5.306;2024-03-23T11:53:42;6.72;;;0.90;;
25237;SDS011;13185;50.872;5.306;2024-03-23T11:56:08;5.95;;;0.73;;
25237;SDS011;13185;50.872;5.306;2024-03-23T11:58:34;6.55;;;1.20;;
25237;SDS011;13185;50.872;5.306;2024-03-23T12:01:03;2.35;;;0.70;;
25237;SDS011;13185;50.872;5.306;2024-03-23T12:03:30;4.40;;;0.80;;
25237;SDS011;13185;50.872;5.306;2024-03-23T12:06:01;3.97;;;0.75;;
25237;SDS011;13185;50.872;5.306;2024-03-23T12:08:32;3.42;;;0.68;;
25237;SDS011;13185;50.872;5.306;2024-03-23T12:11:11;1.60;;;0.30;;
25237;SDS011;13185;50.872;5.306;2024-03-23T12:13:39;1.58;;;0.35;;
25237;SDS011;13185;50.872;5.306;2024-03-23T12:16:16;3.58;;;0.77;;
25237;SDS011;13185;50.872;5.306;2024-03-23T12:18:47;1.43;;;0.43;;
25237;SDS011;13185;50.872;5.306;2024-03-23T12:21:14;4.95;;;0.65;;
25237;SDS011;13185;50.872;5.306;2024-03-23T12:23:40;5.50;;;0.57;;
25237;SDS011;13185;50.872;5.306;2024-03-23T12:26:07;2.58;;;0.80;;
25237;SDS011;13185;50.872;5.306;2024-03-23T12:28:32;3.08;;;0.60;;
25237;SDS011;13185;50.872;5.306;2024-03-23T12:30:58;5.35;;;0.80;;
25237;SDS011;13185;50.872;5.306;2024-03-23T12:33:24;2.13;;;0.90;;
25237;SDS011;13185;50.872;5.306;2024-03-23T12:35:50;2.63;;;0.80;;
25237;SDS011;13185;50.872;5.306;2024-03-23T12:38:16;6.30;;;1.08;;
25237;SDS011;13185;50.872;5.306;2024-03-23T12:40:46;2.95;;;0.60;;
25237;SDS011;13185;50.872;5.306;2024-03-23T12:43:13;3.58;;;0.52;;
25237;SDS011;13185;50.872;5.306;2024-03-23T12:45:39;4.85;;;0.65;;
25237;SDS011;13185;50.872;5.306;2024-03-23T12:48:05;1.67;;;0.63;;
25237;SDS011;13185;50.872;5.306;2024-03-23T12:50:30;3.67;;;1.27;;
25237;SDS011;13185;50.872;5.306;2024-03-23T12:52:56;2.65;;;0.52;;
25237;SDS011;13185;50.872;5.306;2024-03-23T12:55:21;3.92;;;0.60;;
25237;SDS011;13185;50.872;5.306;2024-03-23T12:57:47;5.30;;;0.63;;
25237;SDS011;13185;50.872;5.306;2024-03-23T13:00:13;3.47;;;1.02;;
25237;SDS011;13185;50.872;5.306;2024-03-23T13:02:40;7.07;;;1.40;;
25237;SDS011;13185;50.872;5.306;2024-03-23T13:05:06;3.85;;;0.95;;
25237;SDS011;13185;50.872;5.306;2024-03-23T13:07:35;4.88;;;1.13;;
25237;SDS011;13185;50.872;5.306;2024-03-23T13:10:02;6.35;;;0.88;;
25237;SDS011;13185;50.872;5.306;2024-03-23T13:12:28;4.95;;;0.95;;
25237;SDS011;13185;50.872;5.306;2024-03-23T13:14:54;3.05;;;0.80;;
25237;SDS011;13185;50.872;5.306;2024-03-23T13:17:19;2.63;;;0.93;;
25237;SDS011;13185;50.872;5.306;2024-03-23T13:19:45;5.53;;;0.70;;
25237;SDS011;13185;50.872;5.306;2024-03-23T13:22:10;4.88;;;0.90;;
25237;SDS011;13185;50.872;5.306;2024-03-23T13:24:36;2.72;;;0.88;;
25237;SDS011;13185;50.872;5.306;2024-03-23T13:27:02;6.97;;;0.70;;
25237;SDS011;13185;50.872;5.306;2024-03-23T13:29:29;5.82;;;0.70;;
25237;SDS011;13185;50.872;5.306;2024-03-23T13:31:55;2.25;;;0.40;;
25237;SDS011;13185;50.872;5.306;2024-03-23T13:34:20;5.45;;;0.40;;
25237;SDS011;13185;50.872;5.306;2024-03-23T13:36:46;6.93;;;1.27;;
25237;SDS011;13185;50.872;5.306;2024-03-23T13:39:12;4.78;;;1.30;;
25237;SDS011;13185;50.872;5.306;2024-03-23T13:41:45;2.50;;;0.65;;
25237;SDS011;13185;50.872;5.306;2024-03-23T13:44:11;5.55;;;0.90;;
25237;SDS011;13185;50.872;5.306;2024-03-23T13:46:38;3.42;;;0.40;;
25237;SDS011;13185;50.872;5.306;2024-03-23T13:49:05;3.42;;;0.40;;
25237;SDS011;13185;50.872;5.306;2024-03-23T13:51:31;3.20;;;0.20;;
25237;SDS011;13185;50.872;5.306;2024-03-23T13:53:57;2.08;;;0.50;;
25237;SDS011;13185;50.872;5.306;2024-03-23T13:56:26;1.73;;;0.32;;
25237;SDS011;13185;50.872;5.306;2024-03-23T13:58:53;1.58;;;0.30;;
25237;SDS011;13185;50.872;5.306;2024-03-23T14:01:20;4.25;;;0.60;;
25237;SDS011;13185;50.872;5.306;2024-03-23T14:03:45;3.63;;;0.60;;
25237;SDS011;13185;50.872;5.306;2024-03-23T14:06:11;3.85;;;0.95;;
25237;SDS011;13185;50.872;5.306;2024-03-23T14:08:37;4.40;;;1.23;;
25237;SDS011;13185;50.872;5.306;2024-03-23T14:11:06;2.92;;;0.60;;
25237;SDS011;13185;50.872;5.306;2024-03-23T14:13:34;2.38;;;0.70;;
25237;SDS011;13185;50.872;5.306;2024-03-23T14:16:00;2.55;;;0.70;;
25237;SDS011;13185;50.872;5.306;2024-03-23T14:18:26;4.15;;;0.88;;
25237;SDS011;13185;50.872;5.306;2024-03-23T14:20:52;5.63;;;1.63;;
25237;SDS011;13185;50.872;5.306;2024-03-23T14:23:23;4.40;;;1.23;;
25237;SDS011;13185;50.872;5.306;2024-03-23T14:25:50;4.82;;;0.65;;
25237;SDS011;13185;50.872;5.306;2024-03-23T14:28:18;4.55;;;0.40;;
25237;SDS011;13185;50.872;5.306;2024-03-23T14:30:43;5.30;;;0.63;;
25237;SDS011;13185;50.872;5.306;2024-03-23T14:33:09;5.63;;;0.70;;
25237;SDS011;13185;50.872;5.306;2024-03-23T14:35:35;3.35;;;0.68;;
25237;SDS011;13185;50.872;5.306;2024-03-23T14:38:01;2.33;;;0.32;;
25237;SDS011;13185;50.872;5.306;2024-03-23T14:40:27;3.97;;;0.77;;
25237;SDS011;13185;50.872;5.306;2024-03-23T14:42:53;4.60;;;0.75;;
25237;SDS011;13185;50.872;5.306;2024-03-23T14:45:20;4.05;;;1.00;;
25237;SDS011;13185;50.872;5.306;2024-03-23T14:47:46;2.35;;;0.60;;
25237;SDS011;13185;50.872;5.306;2024-03-23T14:50:12;3.80;;;0.88;;
25237;SDS011;13185;50.872;5.306;2024-03-23T14:52:41;3.55;;;1.00;;
25237;SDS011;13185;50.872;5.306;2024-03-23T14:55:13;2.25;;;0.60;;
25237;SDS011;13185;50.872;5.306;2024-03-23T14:57:38;4.05;;;0.60;;
25237;SDS011;13185;50.872;5.306;2024-03-23T15:00:07;2.40;;;0.55;;
25237;SDS011;13185;50.872;5.306;2024-03-23T15:02:36;1.38;;;0.40;;
25237;SDS011;13185;50.872;5.306;2024-03-23T15:05:02;2.78;;;0.50;;
25237;SDS011;13185;50.872;5.306;2024-03-23T15:07:30;3.78;;;0.55;;
25237;SDS011;13185;50.872;5.306;2024-03-23T15:09:56;1.65;;;0.30;;
25237;SDS011;13185;50.872;5.306;2024-03-23T15:12:21;2.38;;;0.63;;
25237;SDS011;13185;50.872;5.306;2024-03-23T15:14:47;3.13;;;0.90;;
25237;SDS011;13185;50.872;5.306;2024-03-23T15:17:13;3.40;;;0.65;;
25237;SDS011;13185;50.872;5.306;2024-03-23T15:19:38;3.00;;;0.68;;
25237;SDS011;13185;50.872;5.306;2024-03-23T15:22:04;4.03;;;0.57;;
25237;SDS011;13185;50.872;5.306;2024-03-23T15:24:29;1.85;;;0.70;;
25237;SDS011;13185;50.872;5.306;2024-03-23T15:26:56;2.05;;;0.38;;
25237;SDS011;13185;50.872;5.306;2024-03-23T15:29:21;1.33;;;0.30;;
25237;SDS011;13185;50.872;5.306;2024-03-23T15:31:48;4.00;;;0.50;;
25237;SDS011;13185;50.872;5.306;2024-03-23T15:34:17;1.02;;;0.47;;
25237;SDS011;13185;50.872;5.306;2024-03-23T15:36:47;1.75;;;0.45;;
25237;SDS011;13185;50.872;5.306;2024-03-23T15:39:15;4.30;;;0.52;;